createdAt,value
2022-10-05T00:00:52.672Z,60.2
2022-10-05T00:20:52.629Z,60.2
2022-10-05T00:40:52.623Z,60.2
2022-10-05T01:00:52.579Z,60.2
2022-10-05T01:20:52.596Z,60.1
2022-10-05T01:40:52.538Z,60.1
2022-10-05T02:00:52.482Z,60.1
2022-10-05T02:20:52.451Z,60.1
2022-10-05T02:40:52.458Z,60.1
2022-10-05T03:00:52.405Z,60.1
2022-10-05T03:20:52.384Z,60.1
2022-10-05T03:40:52.366Z,60.1
2022-10-05T04:00:52.340Z,60.1
2022-10-05T04:20:52.335Z,60.1
2022-10-05T04:40:52.283Z,60.1
2022-10-05T05:00:52.277Z,60.1
2022-10-05T05:20:52.244Z,60.1
2022-10-05T05:40:52.211Z,60.1
2022-10-05T06:00:52.223Z,60.2
2022-10-05T06:20:52.191Z,60.2
2022-10-05T06:40:52.162Z,60.2
2022-10-05T07:00:52.113Z,60.2
2022-10-05T07:20:52.092Z,60.2
2022-10-05T07:40:52.134Z,60.2
2022-10-05T08:00:52.068Z,60.6
2022-10-05T08:20:52.021Z,60.6
2022-10-05T08:40:52.027Z,60.2
2022-10-05T09:00:52.071Z,60.3
2022-10-05T09:20:51.947Z,60.3
2022-10-05T09:40:51.926Z,60.3
2022-10-05T10:00:51.936Z,60.4
2022-10-05T10:20:51.865Z,60.8
2022-10-05T10:40:51.855Z,60.9
2022-10-05T11:00:51.856Z,60.6
2022-10-05T11:20:51.789Z,60.7
2022-10-05T11:40:51.852Z,60.9
2022-10-05T12:00:51.870Z,61.1
2022-10-05T12:20:51.759Z,61.1
2022-10-05T12:40:51.703Z,61.1
2022-10-05T13:00:51.659Z,60.9
2022-10-05T13:20:51.666Z,60.9
2022-10-05T13:40:51.757Z,61.3
2022-10-05T14:00:51.579Z,61.1
2022-10-05T14:20:51.626Z,63.8
2022-10-05T14:40:51.569Z,64.0
2022-10-05T15:00:51.533Z,62.8
2022-10-05T15:20:51.485Z,62.7
2022-10-05T15:40:51.495Z,62.5
2022-10-05T16:00:51.549Z,62.6
2022-10-05T16:20:51.438Z,62.6
2022-10-05T16:40:51.419Z,62.6
2022-10-05T17:00:51.345Z,62.4
2022-10-05T17:20:51.366Z,62.4
2022-10-05T17:40:51.318Z,62.3
2022-10-05T18:00:51.304Z,62.3
2022-10-05T18:20:51.302Z,62.2
2022-10-05T18:40:51.245Z,62.0
2022-10-05T19:00:51.199Z,62.0
2022-10-05T19:20:51.173Z,62.1
2022-10-05T19:40:51.166Z,62.2
2022-10-05T20:00:51.141Z,62.2
2022-10-05T20:20:51.134Z,62.2
2022-10-05T20:40:51.093Z,62.2
2022-10-05T21:00:51.068Z,62.1
2022-10-05T21:20:51.070Z,62.1
2022-10-05T21:40:51.043Z,62.1
2022-10-05T22:00:50.999Z,62.0
2022-10-05T22:20:50.946Z,62.0
2022-10-05T22:40:50.936Z,62.0
2022-10-05T23:00:50.902Z,62.0
2022-10-05T23:20:50.892Z,62.0
2022-10-05T23:40:50.890Z,62.0
